Terminal Aerodrome Forecast
Issued by NWS Billings, MT

Home | Current Version | Previous Version | Graphics & Text | Print | Product List | Glossary On
Versions: 1 2 3 4 5 6 7 8 9 10 11 12 13 14 15 16 17 18 19 20
000
FTUS45 KBYZ 292228 AAB
TAFMLS
TAF AMD
KMLS 292228Z 2922/3018 09008KT P6SM VCTS BKN080CB
      TEMPO 2922/2923 33020G35KT 4SM TSRA BKN050CB
     FM292300 04006KT P6SM SCT080
     FM300600 13006KT P6SM SKC=

USA.gov is the U.S. government's official web portal to all federal, state and local government web resources and services.